sensor_id;sensor_type;location;lat;lon;timestamp;temperature;humidity
48019;DHT22;33786;48.690;9.562;2023-04-25T04:57:49;7.30;99.90
48019;DHT22;33786;48.690;9.562;2023-04-25T05:00:16;7.50;99.90
48019;DHT22;33786;48.690;9.562;2023-04-25T05:02:43;7.60;99.90
48019;DHT22;33786;48.690;9.562;2023-04-25T05:05:10;7.70;99.90
48019;DHT22;33786;48.690;9.562;2023-04-25T05:07:37;7.80;99.90
48019;DHT22;33786;48.690;9.562;2023-04-25T05:10:04;7.90;99.90
48019;DHT22;33786;48.690;9.562;2023-04-25T05:12:30;8.00;99.90
48019;DHT22;33786;48.690;9.562;2023-04-25T05:14:57;8.00;99.90
48019;DHT22;33786;48.690;9.562;2023-04-25T05:17:24;8.00;99.90
48019;DHT22;33786;48.690;9.562;2023-04-25T05:19:50;8.20;99.90
48019;DHT22;33786;48.690;9.562;2023-04-25T05:22:17;8.30;99.90
48019;DHT22;33786;48.690;9.562;2023-04-25T05:24:44;8.40;99.90
48019;DHT22;33786;48.690;9.562;2023-04-25T05:27:10;8.30;99.90
48019;DHT22;33786;48.690;9.562;2023-04-25T05:29:37;8.40;99.90
48019;DHT22;33786;48.690;9.562;2023-04-25T05:32:04;8.40;99.90
48019;DHT22;33786;48.690;9.562;2023-04-25T05:34:31;8.40;99.90
48019;DHT22;33786;48.690;9.562;2023-04-25T05:36:58;8.40;99.90
48019;DHT22;33786;48.690;9.562;2023-04-25T05:39:25;8.50;99.90
48019;DHT22;33786;48.690;9.562;2023-04-25T05:41:52;8.40;99.90
48019;DHT22;33786;48.690;9.562;2023-04-25T05:44:19;8.30;99.90
48019;DHT22;33786;48.690;9.562;2023-04-25T05:46:46;8.30;99.90
48019;DHT22;33786;48.690;9.562;2023-04-25T05:49:12;8.30;99.90
48019;DHT22;33786;48.690;9.562;2023-04-25T05:51:39;8.50;99.90
48019;DHT22;33786;48.690;9.562;2023-04-25T05:54:06;8.50;99.90
48019;DHT22;33786;48.690;9.562;2023-04-25T05:56:32;8.50;99.90
48019;DHT22;33786;48.690;9.562;2023-04-25T05:58:59;8.60;99.90
48019;DHT22;33786;48.690;9.562;2023-04-25T06:01:26;8.70;99.90
48019;DHT22;33786;48.690;9.562;2023-04-25T06:03:52;8.70;99.90
48019;DHT22;33786;48.690;9.562;2023-04-25T06:06:20;8.90;99.90
48019;DHT22;33786;48.690;9.562;2023-04-25T06:08:47;9.00;99.90
48019;DHT22;33786;48.690;9.562;2023-04-25T06:11:13;9.10;99.90
48019;DHT22;33786;48.690;9.562;2023-04-25T06:13:40;9.10;99.90
48019;DHT22;33786;48.690;9.562;2023-04-25T06:16:07;9.30;99.90
48019;DHT22;33786;48.690;9.562;2023-04-25T06:18:34;9.20;99.90
48019;DHT22;33786;48.690;9.562;2023-04-25T06:21:01;9.30;99.90
48019;DHT22;33786;48.690;9.562;2023-04-25T06:23:27;9.30;99.90
48019;DHT22;33786;48.690;9.562;2023-04-25T06:25:54;9.30;99.90
48019;DHT22;33786;48.690;9.562;2023-04-25T06:28:21;9.40;99.90
48019;DHT22;33786;48.690;9.562;2023-04-25T06:30:48;9.40;99.90
48019;DHT22;33786;48.690;9.562;2023-04-25T06:33:15;9.40;99.90
48019;DHT22;33786;48.690;9.562;2023-04-25T06:35:42;9.50;99.90
48019;DHT22;33786;48.690;9.562;2023-04-25T06:38:08;9.60;99.90
48019;DHT22;33786;48.690;9.562;2023-04-25T06:40:35;9.60;99.90
48019;DHT22;33786;48.690;9.562;2023-04-25T06:43:02;9.40;99.90
48019;DHT22;33786;48.690;9.562;2023-04-25T06:45:29;9.40;99.90
48019;DHT22;33786;48.690;9.562;2023-04-25T06:47:55;9.50;99.90
48019;DHT22;33786;48.690;9.562;2023-04-25T06:50:22;9.80;99.90
48019;DHT22;33786;48.690;9.562;2023-04-25T06:52:49;10.20;99.90
48019;DHT22;33786;48.690;9.562;2023-04-25T06:55:16;11.50;99.90
48019;DHT22;33786;48.690;9.562;2023-04-25T06:57:42;13.00;99.90
48019;DHT22;33786;48.690;9.562;2023-04-25T07:00:09;13.30;99.90
48019;DHT22;33786;48.690;9.562;2023-04-25T07:02:36;13.10;98.90
48019;DHT22;33786;48.690;9.562;2023-04-25T07:05:03;13.00;99.90
48019;DHT22;33786;48.690;9.562;2023-04-25T07:07:30;13.10;99.90
48019;DHT22;33786;48.690;9.562;2023-04-25T07:09:57;12.70;99.80
48019;DHT22;33786;48.690;9.562;2023-04-25T07:12:24;12.40;99.70
48019;DHT22;33786;48.690;9.562;2023-04-25T07:14:50;11.90;99.90
48019;DHT22;33786;48.690;9.562;2023-04-25T07:17:17;11.70;99.90
48019;DHT22;33786;48.690;9.562;2023-04-25T07:19:44;11.60;99.90
48019;DHT22;33786;48.690;9.562;2023-04-25T07:22:11;11.20;99.90
48019;DHT22;33786;48.690;9.562;2023-04-25T07:24:38;11.00;99.90
48019;DHT22;33786;48.690;9.562;2023-04-25T07:27:04;10.90;99.90
48019;DHT22;33786;48.690;9.562;2023-04-25T07:29:31;10.60;99.90
48019;DHT22;33786;48.690;9.562;2023-04-25T07:31:58;10.60;99.90
48019;DHT22;33786;48.690;9.562;2023-04-25T07:34:25;10.60;99.90
48019;DHT22;33786;48.690;9.562;2023-04-25T07:36:51;10.50;99.90
48019;DHT22;33786;48.690;9.562;2023-04-25T07:39:19;10.60;99.90
48019;DHT22;33786;48.690;9.562;2023-04-25T07:41:45;10.60;99.90
48019;DHT22;33786;48.690;9.562;2023-04-25T07:44:12;10.60;99.90
48019;DHT22;33786;48.690;9.562;2023-04-25T07:46:39;10.60;99.90
48019;DHT22;33786;48.690;9.562;2023-04-25T07:49:05;10.50;99.90
48019;DHT22;33786;48.690;9.562;2023-04-25T07:51:32;10.40;99.90
48019;DHT22;33786;48.690;9.562;2023-04-25T07:53:59;10.30;99.90
48019;DHT22;33786;48.690;9.562;2023-04-25T07:56:27;10.40;99.90
48019;DHT22;33786;48.690;9.562;2023-04-25T07:59:01;10.60;99.90
48019;DHT22;33786;48.690;9.562;2023-04-25T08:01:27;10.40;99.90
48019;DHT22;33786;48.690;9.562;2023-04-25T08:03:54;10.40;99.90
48019;DHT22;33786;48.690;9.562;2023-04-25T08:06:21;10.20;99.90
48019;DHT22;33786;48.690;9.562;2023-04-25T08:08:48;10.20;99.90
48019;DHT22;33786;48.690;9.562;2023-04-25T08:11:15;10.30;99.90
48019;DHT22;33786;48.690;9.562;2023-04-25T08:13:42;10.30;99.90
48019;DHT22;33786;48.690;9.562;2023-04-25T08:16:09;10.30;99.90
48019;DHT22;33786;48.690;9.562;2023-04-25T08:18:35;10.40;99.90
48019;DHT22;33786;48.690;9.562;2023-04-25T08:21:02;10.40;99.90
48019;DHT22;33786;48.690;9.562;2023-04-25T08:23:29;10.30;99.90
48019;DHT22;33786;48.690;9.562;2023-04-25T08:25:56;10.30;99.90
48019;DHT22;33786;48.690;9.562;2023-04-25T08:28:22;10.20;99.90
48019;DHT22;33786;48.690;9.562;2023-04-25T08:30:49;10.10;99.90
48019;DHT22;33786;48.690;9.562;2023-04-25T08:33:16;10.10;99.90
48019;DHT22;33786;48.690;9.562;2023-04-25T08:35:43;10.00;99.90
48019;DHT22;33786;48.690;9.562;2023-04-25T08:38:10;10.10;99.90
48019;DHT22;33786;48.690;9.562;2023-04-25T08:40:37;10.00;99.90
48019;DHT22;33786;48.690;9.562;2023-04-25T08:43:04;10.10;99.90
48019;DHT22;33786;48.690;9.562;2023-04-25T08:45:41;10.00;99.90
48019;DHT22;33786;48.690;9.562;2023-04-25T08:48:15;9.80;99.90
48019;DHT22;33786;48.690;9.562;2023-04-25T08:50:49;9.60;99.90
48019;DHT22;33786;48.690;9.562;2023-04-25T08:53:18;9.50;99.90
48019;DHT22;33786;48.690;9.562;2023-04-25T08:55:47;9.40;99.90
48019;DHT22;33786;48.690;9.562;2023-04-25T08:58:14;9.10;99.90
48019;DHT22;33786;48.690;9.562;2023-04-25T09:00:41;9.20;99.90
48019;DHT22;33786;48.690;9.562;2023-04-25T09:03:08;9.20;99.90
48019;DHT22;33786;48.690;9.562;2023-04-25T09:05:36;9.10;99.90
48019;DHT22;33786;48.690;9.562;2023-04-25T09:08:03;9.10;99.90
48019;DHT22;33786;48.690;9.562;2023-04-25T09:10:29;9.10;99.90
48019;DHT22;33786;48.690;9.562;2023-04-25T09:13:07;9.20;99.90
48019;DHT22;33786;48.690;9.562;2023-04-25T09:15:48;9.10;99.90
48019;DHT22;33786;48.690;9.562;2023-04-25T09:18:25;9.30;99.90
48019;DHT22;33786;48.690;9.562;2023-04-25T09:20:56;9.00;99.90
48019;DHT22;33786;48.690;9.562;2023-04-25T09:23:48;9.00;99.90
48019;DHT22;33786;48.690;9.562;2023-04-25T09:26:16;9.00;99.90
48019;DHT22;33786;48.690;9.562;2023-04-25T09:28:46;8.70;99.90
48019;DHT22;33786;48.690;9.562;2023-04-25T09:31:23;8.60;99.90
48019;DHT22;33786;48.690;9.562;2023-04-25T09:33:59;8.60;99.90
48019;DHT22;33786;48.690;9.562;2023-04-25T09:36:27;8.50;99.90
48019;DHT22;33786;48.690;9.562;2023-04-25T09:38:54;8.50;99.90
48019;DHT22;33786;48.690;9.562;2023-04-25T09:41:22;8.60;99.90
48019;DHT22;33786;48.690;9.562;2023-04-25T09:43:49;8.70;99.90
48019;DHT22;33786;48.690;9.562;2023-04-25T09:46:17;8.80;99.90
48019;DHT22;33786;48.690;9.562;2023-04-25T09:48:48;8.70;99.90
48019;DHT22;33786;48.690;9.562;2023-04-25T09:51:15;8.60;99.90
48019;DHT22;33786;48.690;9.562;2023-04-25T09:53:43;8.40;99.90
48019;DHT22;33786;48.690;9.562;2023-04-25T09:56:11;8.40;99.90
48019;DHT22;33786;48.690;9.562;2023-04-25T09:58:38;8.30;99.90
48019;DHT22;33786;48.690;9.562;2023-04-25T10:01:06;8.50;99.90
48019;DHT22;33786;48.690;9.562;2023-04-25T10:03:34;8.60;99.90
48019;DHT22;33786;48.690;9.562;2023-04-25T10:06:04;8.80;99.90
48019;DHT22;33786;48.690;9.562;2023-04-25T10:08:36;8.70;99.90
48019;DHT22;33786;48.690;9.562;2023-04-25T10:11:04;8.80;99.90
48019;DHT22;33786;48.690;9.562;2023-04-25T10:13:31;8.80;99.90
48019;DHT22;33786;48.690;9.562;2023-04-25T10:15:59;8.80;99.90
48019;DHT22;33786;48.690;9.562;2023-04-25T10:18:27;8.90;99.90
48019;DHT22;33786;48.690;9.562;2023-04-25T10:20:54;8.70;99.90
48019;DHT22;33786;48.690;9.562;2023-04-25T10:23:22;8.70;99.90
48019;DHT22;33786;48.690;9.562;2023-04-25T10:25:52;8.60;99.90
48019;DHT22;33786;48.690;9.562;2023-04-25T10:28:20;8.70;99.90
48019;DHT22;33786;48.690;9.562;2023-04-25T10:30:59;8.70;99.90
48019;DHT22;33786;48.690;9.562;2023-04-25T10:34:00;8.60;99.90
48019;DHT22;33786;48.690;9.562;2023-04-25T10:36:23;8.60;99.90
48019;DHT22;33786;48.690;9.562;2023-04-25T10:38:51;8.30;99.90
48019;DHT22;33786;48.690;9.562;2023-04-25T10:41:18;8.40;99.90
48019;DHT22;33786;48.690;9.562;2023-04-25T10:43:46;8.50;99.90
48019;DHT22;33786;48.690;9.562;2023-04-25T10:46:13;8.40;99.90
48019;DHT22;33786;48.690;9.562;2023-04-25T10:48:48;8.40;99.90
48019;DHT22;33786;48.690;9.562;2023-04-25T10:51:16;8.20;99.90
48019;DHT22;33786;48.690;9.562;2023-04-25T10:53:46;8.10;99.90
48019;DHT22;33786;48.690;9.562;2023-04-25T10:56:17;8.10;99.90
48019;DHT22;33786;48.690;9.562;2023-04-25T10:58:44;8.10;99.90
48019;DHT22;33786;48.690;9.562;2023-04-25T11:01:12;8.00;99.90
48019;DHT22;33786;48.690;9.562;2023-04-25T11:03:42;8.00;99.90
48019;DHT22;33786;48.690;9.562;2023-04-25T11:08:51;8.20;99.90
48019;DHT22;33786;48.690;9.562;2023-04-25T11:11:19;8.20;99.90
48019;DHT22;33786;48.690;9.562;2023-04-25T11:13:49;8.20;99.90
48019;DHT22;33786;48.690;9.562;2023-04-25T11:16:16;8.20;99.90
48019;DHT22;33786;48.690;9.562;2023-04-25T11:18:48;8.30;99.90
48019;DHT22;33786;48.690;9.562;2023-04-25T11:21:18;8.20;99.90
48019;DHT22;33786;48.690;9.562;2023-04-25T11:23:45;8.10;99.90
48019;DHT22;33786;48.690;9.562;2023-04-25T11:26:13;8.10;99.90
48019;DHT22;33786;48.690;9.562;2023-04-25T11:28:39;8.10;99.90
48019;DHT22;33786;48.690;9.562;2023-04-25T11:31:06;8.20;99.90
48019;DHT22;33786;48.690;9.562;2023-04-25T11:33:33;8.20;99.90
48019;DHT22;33786;48.690;9.562;2023-04-25T11:36:00;8.10;99.90
48019;DHT22;33786;48.690;9.562;2023-04-25T11:38:26;8.00;99.90
48019;DHT22;33786;48.690;9.562;2023-04-25T11:40:55;8.30;99.90
48019;DHT22;33786;48.690;9.562;2023-04-25T11:43:35;8.30;99.90
48019;DHT22;33786;48.690;9.562;2023-04-25T11:46:06;8.30;99.90
48019;DHT22;33786;48.690;9.562;2023-04-25T11:48:39;8.40;99.90
48019;DHT22;33786;48.690;9.562;2023-04-25T11:51:06;8.30;99.90
48019;DHT22;33786;48.690;9.562;2023-04-25T11:53:33;8.20;99.90
48019;DHT22;33786;48.690;9.562;2023-04-25T11:56:00;7.90;99.90
48019;DHT22;33786;48.690;9.562;2023-04-25T11:58:27;7.90;99.90
48019;DHT22;33786;48.690;9.562;2023-04-25T12:00:57;8.00;99.90
48019;DHT22;33786;48.690;9.562;2023-04-25T12:03:25;8.40;99.90
48019;DHT22;33786;48.690;9.562;2023-04-25T12:06:02;8.50;99.90
48019;DHT22;33786;48.690;9.562;2023-04-25T12:08:29;8.60;99.90
48019;DHT22;33786;48.690;9.562;2023-04-25T12:10:56;9.00;99.90
48019;DHT22;33786;48.690;9.562;2023-04-25T12:15:49;9.00;99.90
48019;DHT22;33786;48.690;9.562;2023-04-25T12:18:20;9.30;99.90
48019;DHT22;33786;48.690;9.562;2023-04-25T12:20:47;9.30;99.90
48019;DHT22;33786;48.690;9.562;2023-04-25T12:23:14;9.40;99.90
48019;DHT22;33786;48.690;9.562;2023-04-25T12:25:41;9.80;99.90
48019;DHT22;33786;48.690;9.562;2023-04-25T12:28:09;9.90;99.90
48019;DHT22;33786;48.690;9.562;2023-04-25T12:33:19;9.90;99.90
48019;DHT22;33786;48.690;9.562;2023-04-25T12:35:46;9.80;99.90
48019;DHT22;33786;48.690;9.562;2023-04-25T12:40:52;10.20;99.90
48019;DHT22;33786;48.690;9.562;2023-04-25T12:43:19;10.30;99.90
48019;DHT22;33786;48.690;9.562;2023-04-25T12:45:49;10.30;99.90
48019;DHT22;33786;48.690;9.562;2023-04-25T12:48:17;10.20;99.90
48019;DHT22;33786;48.690;9.562;2023-04-25T12:50:44;10.10;99.90
48019;DHT22;33786;48.690;9.562;2023-04-25T12:53:11;10.00;99.90
48019;DHT22;33786;48.690;9.562;2023-04-25T12:55:38;10.00;99.90
48019;DHT22;33786;48.690;9.562;2023-04-25T12:58:06;10.20;99.90
48019;DHT22;33786;48.690;9.562;2023-04-25T13:00:32;10.20;99.90
48019;DHT22;33786;48.690;9.562;2023-04-25T13:02:59;10.50;99.90
48019;DHT22;33786;48.690;9.562;2023-04-25T13:05:26;10.50;99.90
48019;DHT22;33786;48.690;9.562;2023-04-25T13:07:53;10.60;99.90
48019;DHT22;33786;48.690;9.562;2023-04-25T13:10:20;10.90;99.90
48019;DHT22;33786;48.690;9.562;2023-04-25T13:12:47;11.10;99.90
48019;DHT22;33786;48.690;9.562;2023-04-25T13:15:14;11.30;99.90
48019;DHT22;33786;48.690;9.562;2023-04-25T13:17:42;11.10;99.90
48019;DHT22;33786;48.690;9.562;2023-04-25T13:20:09;10.80;99.90
48019;DHT22;33786;48.690;9.562;2023-04-25T13:22:39;10.90;99.90
48019;DHT22;33786;48.690;9.562;2023-04-25T13:25:06;11.20;99.90
48019;DHT22;33786;48.690;9.562;2023-04-25T13:27:33;11.40;99.90
48019;DHT22;33786;48.690;9.562;2023-04-25T13:30:01;11.30;99.90
48019;DHT22;33786;48.690;9.562;2023-04-25T13:32:31;11.40;99.90
48019;DHT22;33786;48.690;9.562;2023-04-25T13:34:57;11.10;99.90
48019;DHT22;33786;48.690;9.562;2023-04-25T13:37:24;11.20;99.90
48019;DHT22;33786;48.690;9.562;2023-04-25T13:39:51;11.30;99.90
48019;DHT22;33786;48.690;9.562;2023-04-25T13:42:18;11.20;99.90
48019;DHT22;33786;48.690;9.562;2023-04-25T13:44:45;11.00;99.90
48019;DHT22;33786;48.690;9.562;2023-04-25T13:47:11;10.90;99.90
48019;DHT22;33786;48.690;9.562;2023-04-25T13:49:38;10.90;99.90
48019;DHT22;33786;48.690;9.562;2023-04-25T13:52:05;10.80;99.90
48019;DHT22;33786;48.690;9.562;2023-04-25T13:54:33;10.90;99.90
48019;DHT22;33786;48.690;9.562;2023-04-25T13:56:59;11.20;99.90
48019;DHT22;33786;48.690;9.562;2023-04-25T13:59:26;11.40;99.90
48019;DHT22;33786;48.690;9.562;2023-04-25T14:01:53;11.50;99.90
48019;DHT22;33786;48.690;9.562;2023-04-25T14:04:20;11.70;99.90
48019;DHT22;33786;48.690;9.562;2023-04-25T14:06:47;11.60;99.90
48019;DHT22;33786;48.690;9.562;2023-04-25T14:09:14;11.60;99.90
48019;DHT22;33786;48.690;9.562;2023-04-25T14:11:41;11.70;99.90
48019;DHT22;33786;48.690;9.562;2023-04-25T14:14:08;11.70;99.90
48019;DHT22;33786;48.690;9.562;2023-04-25T14:16:38;11.10;99.90
48019;DHT22;33786;48.690;9.562;2023-04-25T14:19:05;10.90;99.90
48019;DHT22;33786;48.690;9.562;2023-04-25T14:21:31;10.80;99.90
48019;DHT22;33786;48.690;9.562;2023-04-25T14:23:59;10.90;99.90
48019;DHT22;33786;48.690;9.562;2023-04-25T14:26:25;10.70;99.90
48019;DHT22;33786;48.690;9.562;2023-04-25T14:28:52;10.90;99.90
48019;DHT22;33786;48.690;9.562;2023-04-25T14:31:19;10.80;99.90
48019;DHT22;33786;48.690;9.562;2023-04-25T14:33:46;11.30;99.90
48019;DHT22;33786;48.690;9.562;2023-04-25T14:36:13;11.30;99.90
48019;DHT22;33786;48.690;9.562;2023-04-25T14:38:40;11.60;99.90
48019;DHT22;33786;48.690;9.562;2023-04-25T14:41:07;11.70;99.90
48019;DHT22;33786;48.690;9.562;2023-04-25T14:43:34;12.00;99.90
48019;DHT22;33786;48.690;9.562;2023-04-25T14:46:01;11.80;99.90
48019;DHT22;33786;48.690;9.562;2023-04-25T14:48:28;11.90;99.90
48019;DHT22;33786;48.690;9.562;2023-04-25T14:50:55;11.80;99.90
48019;DHT22;33786;48.690;9.562;2023-04-25T14:53:26;11.90;99.90
48019;DHT22;33786;48.690;9.562;2023-04-25T14:55:53;11.90;99.90
48019;DHT22;33786;48.690;9.562;2023-04-25T14:58:20;11.90;99.90
48019;DHT22;33786;48.690;9.562;2023-04-25T15:00:47;11.90;99.90
48019;DHT22;33786;48.690;9.562;2023-04-25T15:03:14;11.90;99.90
48019;DHT22;33786;48.690;9.562;2023-04-25T15:05:43;11.80;99.90
48019;DHT22;33786;48.690;9.562;2023-04-25T15:08:10;11.60;99.90
48019;DHT22;33786;48.690;9.562;2023-04-25T15:10:36;11.50;99.90
48019;DHT22;33786;48.690;9.562;2023-04-25T15:13:03;11.60;99.90
48019;DHT22;33786;48.690;9.562;2023-04-25T15:15:30;11.70;99.90
48019;DHT22;33786;48.690;9.562;2023-04-25T15:17:57;12.10;99.90
48019;DHT22;33786;48.690;9.562;2023-04-25T15:20:25;12.50;99.90
48019;DHT22;33786;48.690;9.562;2023-04-25T15:22:51;12.40;99.90
48019;DHT22;33786;48.690;9.562;2023-04-25T15:25:18;12.00;99.90
48019;DHT22;33786;48.690;9.562;2023-04-25T15:27:45;11.60;99.90
48019;DHT22;33786;48.690;9.562;2023-04-25T15:30:15;11.60;99.90
48019;DHT22;33786;48.690;9.562;2023-04-25T15:32:43;11.70;99.90
48019;DHT22;33786;48.690;9.562;2023-04-25T15:35:10;11.80;99.90
48019;DHT22;33786;48.690;9.562;2023-04-25T15:37:37;11.50;99.90
48019;DHT22;33786;48.690;9.562;2023-04-25T15:40:05;11.50;99.90
48019;DHT22;33786;48.690;9.562;2023-04-25T15:42:35;11.30;99.90
48019;DHT22;33786;48.690;9.562;2023-04-25T15:45:03;11.10;99.90
48019;DHT22;33786;48.690;9.562;2023-04-25T15:47:30;11.10;99.90
48019;DHT22;33786;48.690;9.562;2023-04-25T15:49:58;10.90;99.90
48019;DHT22;33786;48.690;9.562;2023-04-25T15:52:25;10.90;99.90
48019;DHT22;33786;48.690;9.562;2023-04-25T15:54:51;11.00;99.90
48019;DHT22;33786;48.690;9.562;2023-04-25T15:57:18;10.90;99.90
48019;DHT22;33786;48.690;9.562;2023-04-25T15:59:47;10.90;99.90
48019;DHT22;33786;48.690;9.562;2023-04-25T16:02:14;11.10;99.90
48019;DHT22;33786;48.690;9.562;2023-04-25T16:04:41;11.00;99.90
48019;DHT22;33786;48.690;9.562;2023-04-25T16:07:08;11.10;99.90
48019;DHT22;33786;48.690;9.562;2023-04-25T16:09:35;11.30;99.90
48019;DHT22;33786;48.690;9.562;2023-04-25T16:12:02;11.50;99.90
48019;DHT22;33786;48.690;9.562;2023-04-25T16:14:29;11.30;99.90
48019;DHT22;33786;48.690;9.562;2023-04-25T16:16:56;11.30;99.90
48019;DHT22;33786;48.690;9.562;2023-04-25T16:19:25;11.10;99.90
48019;DHT22;33786;48.690;9.562;2023-04-25T16:21:52;11.10;99.90
48019;DHT22;33786;48.690;9.562;2023-04-25T16:24:19;10.90;99.90
48019;DHT22;33786;48.690;9.562;2023-04-25T16:26:46;10.90;99.90
48019;DHT22;33786;48.690;9.562;2023-04-25T16:29:13;10.90;99.90
48019;DHT22;33786;48.690;9.562;2023-04-25T16:31:43;10.90;99.90
48019;DHT22;33786;48.690;9.562;2023-04-25T16:34:10;10.70;99.90
48019;DHT22;33786;48.690;9.562;2023-04-25T16:36:37;10.70;99.90
48019;DHT22;33786;48.690;9.562;2023-04-25T16:39:04;10.60;99.90
48019;DHT22;33786;48.690;9.562;2023-04-25T16:41:33;10.50;99.90
48019;DHT22;33786;48.690;9.562;2023-04-25T16:44:00;10.30;99.90
48019;DHT22;33786;48.690;9.562;2023-04-25T16:46:27;10.30;99.90
48019;DHT22;33786;48.690;9.562;2023-04-25T16:48:54;10.20;99.90
48019;DHT22;33786;48.690;9.562;2023-04-25T16:51:20;10.10;99.90
48019;DHT22;33786;48.690;9.562;2023-04-25T16:53:47;10.20;99.90
48019;DHT22;33786;48.690;9.562;2023-04-25T16:56:14;10.20;99.90
48019;DHT22;33786;48.690;9.562;2023-04-25T16:58:41;10.20;99.90
48019;DHT22;33786;48.690;9.562;2023-04-25T17:01:07;10.20;99.90
48019;DHT22;33786;48.690;9.562;2023-04-25T17:03:34;10.10;99.90
48019;DHT22;33786;48.690;9.562;2023-04-25T17:06:01;10.10;99.90
48019;DHT22;33786;48.690;9.562;2023-04-25T17:08:28;9.90;99.90
48019;DHT22;33786;48.690;9.562;2023-04-25T17:10:55;10.00;99.90
48019;DHT22;33786;48.690;9.562;2023-04-25T17:13:22;9.80;99.90
48019;DHT22;33786;48.690;9.562;2023-04-25T17:15:57;9.70;99.90
48019;DHT22;33786;48.690;9.562;2023-04-25T17:18:24;9.60;99.90
48019;DHT22;33786;48.690;9.562;2023-04-25T17:20:51;9.40;99.90
48019;DHT22;33786;48.690;9.562;2023-04-25T17:23:18;9.30;99.90
48019;DHT22;33786;48.690;9.562;2023-04-25T17:25:45;9.20;99.90
48019;DHT22;33786;48.690;9.562;2023-04-25T17:28:12;9.10;99.90
48019;DHT22;33786;48.690;9.562;2023-04-25T17:30:38;9.10;99.90
48019;DHT22;33786;48.690;9.562;2023-04-25T17:33:05;9.10;99.90
48019;DHT22;33786;48.690;9.562;2023-04-25T17:35:32;9.10;99.90
48019;DHT22;33786;48.690;9.562;2023-04-25T17:37:59;9.00;99.90
48019;DHT22;33786;48.690;9.562;2023-04-25T17:40:26;9.00;99.90
48019;DHT22;33786;48.690;9.562;2023-04-25T17:42:52;9.00;99.90
48019;DHT22;33786;48.690;9.562;2023-04-25T17:45:19;9.00;99.90
48019;DHT22;33786;48.690;9.562;2023-04-25T17:47:46;9.10;99.90
48019;DHT22;33786;48.690;9.562;2023-04-25T17:50:13;9.00;99.90
48019;DHT22;33786;48.690;9.562;2023-04-25T17:52:42;9.10;99.90
48019;DHT22;33786;48.690;9.562;2023-04-25T17:55:10;9.10;99.90
48019;DHT22;33786;48.690;9.562;2023-04-25T17:57:37;9.10;99.90
48019;DHT22;33786;48.690;9.562;2023-04-25T18:00:04;9.00;99.90
48019;DHT22;33786;48.690;9.562;2023-04-25T18:02:34;9.00;99.90
48019;DHT22;33786;48.690;9.562;2023-04-25T18:05:02;8.90;99.90
48019;DHT22;33786;48.690;9.562;2023-04-25T18:07:35;8.90;99.90
48019;DHT22;33786;48.690;9.562;2023-04-25T18:10:03;8.90;99.90
48019;DHT22;33786;48.690;9.562;2023-04-25T18:12:34;8.80;99.90
48019;DHT22;33786;48.690;9.562;2023-04-25T18:15:02;8.80;99.90
48019;DHT22;33786;48.690;9.562;2023-04-25T18:17:35;8.70;99.90
48019;DHT22;33786;48.690;9.562;2023-04-25T18:20:11;8.60;99.90
48019;DHT22;33786;48.690;9.562;2023-04-25T18:22:41;8.50;99.90
48019;DHT22;33786;48.690;9.562;2023-04-25T18:25:08;8.50;99.90
48019;DHT22;33786;48.690;9.562;2023-04-25T18:27:36;8.50;99.90
48019;DHT22;33786;48.690;9.562;2023-04-25T18:30:04;8.40;99.90
48019;DHT22;33786;48.690;9.562;2023-04-25T18:32:32;8.30;99.90
48019;DHT22;33786;48.690;9.562;2023-04-25T18:34:59;8.30;99.90
48019;DHT22;33786;48.690;9.562;2023-04-25T18:37:26;8.30;99.90
48019;DHT22;33786;48.690;9.562;2023-04-25T18:39:53;8.20;99.90
48019;DHT22;33786;48.690;9.562;2023-04-25T18:42:20;8.20;99.90
48019;DHT22;33786;48.690;9.562;2023-04-25T18:44:47;8.20;99.90
48019;DHT22;33786;48.690;9.562;2023-04-25T18:47:14;8.20;99.90
48019;DHT22;33786;48.690;9.562;2023-04-25T18:49:41;8.20;99.90
48019;DHT22;33786;48.690;9.562;2023-04-25T18:52:08;8.20;99.90
48019;DHT22;33786;48.690;9.562;2023-04-25T18:54:36;8.00;99.90
48019;DHT22;33786;48.690;9.562;2023-04-25T18:57:03;8.00;99.90
48019;DHT22;33786;48.690;9.562;2023-04-25T18:59:31;7.90;99.90
48019;DHT22;33786;48.690;9.562;2023-04-25T19:01:58;8.00;99.90
48019;DHT22;33786;48.690;9.562;2023-04-25T19:04:31;8.00;99.90
48019;DHT22;33786;48.690;9.562;2023-04-25T19:06:58;8.00;99.90
48019;DHT22;33786;48.690;9.562;2023-04-25T19:09:25;8.00;99.90
48019;DHT22;33786;48.690;9.562;2023-04-25T19:11:51;8.00;99.90
48019;DHT22;33786;48.690;9.562;2023-04-25T19:14:18;8.10;99.90
48019;DHT22;33786;48.690;9.562;2023-04-25T19:16:45;8.10;99.90
48019;DHT22;33786;48.690;9.562;2023-04-25T19:19:12;8.10;99.90
48019;DHT22;33786;48.690;9.562;2023-04-25T19:21:38;8.10;99.90
48019;DHT22;33786;48.690;9.562;2023-04-25T19:24:05;8.10;99.90
48019;DHT22;33786;48.690;9.562;2023-04-25T19:26:33;8.10;99.90
48019;DHT22;33786;48.690;9.562;2023-04-25T19:29:07;8.10;99.90
48019;DHT22;33786;48.690;9.562;2023-04-25T19:31:35;8.10;99.90
48019;DHT22;33786;48.690;9.562;2023-04-25T19:34:05;8.10;99.90
48019;DHT22;33786;48.690;9.562;2023-04-25T19:36:32;8.00;99.90
48019;DHT22;33786;48.690;9.562;2023-04-25T19:38:59;7.90;99.90
48019;DHT22;33786;48.690;9.562;2023-04-25T19:41:30;7.80;99.90
48019;DHT22;33786;48.690;9.562;2023-04-25T19:43:57;7.90;99.90
48019;DHT22;33786;48.690;9.562;2023-04-25T19:46:26;7.90;99.90
48019;DHT22;33786;48.690;9.562;2023-04-25T19:48:53;7.80;99.90
48019;DHT22;33786;48.690;9.562;2023-04-25T19:51:20;7.80;99.90
48019;DHT22;33786;48.690;9.562;2023-04-25T19:53:48;7.80;99.90
48019;DHT22;33786;48.690;9.562;2023-04-25T19:56:15;7.80;99.90
48019;DHT22;33786;48.690;9.562;2023-04-25T19:58:43;7.80;99.90
48019;DHT22;33786;48.690;9.562;2023-04-25T20:01:10;7.80;99.90
48019;DHT22;33786;48.690;9.562;2023-04-25T20:03:37;7.80;99.90
48019;DHT22;33786;48.690;9.562;2023-04-25T20:06:03;7.80;99.90
48019;DHT22;33786;48.690;9.562;2023-04-25T20:08:30;7.80;99.90
48019;DHT22;33786;48.690;9.562;2023-04-25T20:10:57;7.90;99.90
48019;DHT22;33786;48.690;9.562;2023-04-25T20:13:24;7.90;99.90
48019;DHT22;33786;48.690;9.562;2023-04-25T20:15:51;7.80;99.90
48019;DHT22;33786;48.690;9.562;2023-04-25T20:18:18;7.70;99.90
48019;DHT22;33786;48.690;9.562;2023-04-25T20:20:45;7.60;99.90
48019;DHT22;33786;48.690;9.562;2023-04-25T20:23:12;7.50;99.90
48019;DHT22;33786;48.690;9.562;2023-04-25T20:25:39;7.60;99.90
48019;DHT22;33786;48.690;9.562;2023-04-25T20:28:06;7.60;99.90
48019;DHT22;33786;48.690;9.562;2023-04-25T20:30:32;7.60;99.90
48019;DHT22;33786;48.690;9.562;2023-04-25T20:32:59;7.60;99.90
48019;DHT22;33786;48.690;9.562;2023-04-25T20:35:27;7.60;99.90
48019;DHT22;33786;48.690;9.562;2023-04-25T20:37:53;7.60;99.90
48019;DHT22;33786;48.690;9.562;2023-04-25T20:40:20;7.60;99.90
48019;DHT22;33786;48.690;9.562;2023-04-25T20:42:47;7.60;99.90
48019;DHT22;33786;48.690;9.562;2023-04-25T20:45:15;7.60;99.90
48019;DHT22;33786;48.690;9.562;2023-04-25T20:47:42;7.60;99.90
48019;DHT22;33786;48.690;9.562;2023-04-25T20:50:10;7.50;99.90